createdAt,value
2023-04-10T00:01:08.603Z,91.34
2023-04-10T00:06:09.328Z,91.44
2023-04-10T00:11:10.037Z,91.54
2023-04-10T00:16:10.811Z,91.54
2023-04-10T00:21:11.476Z,91.69
2023-04-10T00:26:12.193Z,91.89
2023-04-10T00:31:12.920Z,92.00
2023-04-10T00:36:13.674Z,91.89
2023-04-10T00:41:14.414Z,91.83
2023-04-10T00:46:15.176Z,92.25
2023-04-10T00:51:15.934Z,92.35
2023-04-10T00:56:16.657Z,92.46
2023-04-10T01:01:17.452Z,92.35
2023-04-10T01:06:18.114Z,91.83
2023-04-10T01:11:18.818Z,91.52
2023-04-10T01:16:19.557Z,90.70
2023-04-10T01:21:20.253Z,90.80
2023-04-10T01:26:20.945Z,90.84
2023-04-10T01:31:21.803Z,90.84
2023-04-10T01:36:22.154Z,90.84
2023-04-10T01:41:22.828Z,91.05
2023-04-10T01:46:23.617Z,90.74
2023-04-10T01:51:24.301Z,90.22
2023-04-10T01:56:25.027Z,90.53
2023-04-10T02:01:29.821Z,90.58
2023-04-10T02:06:26.532Z,91.09
2023-04-10T02:11:27.258Z,91.20
2023-04-10T02:16:28.022Z,90.89
2023-04-10T02:21:28.748Z,90.89
2023-04-10T02:26:29.459Z,90.26
2023-04-10T02:31:30.232Z,89.86
2023-04-10T02:36:30.902Z,89.44
2023-04-10T02:41:31.626Z,89.44
2023-04-10T02:46:32.374Z,89.75
2023-04-10T02:51:33.077Z,90.20
2023-04-10T02:56:33.761Z,91.28
2023-04-10T03:01:34.534Z,91.69
2023-04-10T03:06:35.244Z,92.11
2023-04-10T03:11:35.979Z,91.69
2023-04-10T03:16:36.853Z,91.13
2023-04-10T03:21:37.138Z,90.83
2023-04-10T03:26:37.856Z,90.41
2023-04-10T03:31:38.648Z,90.45
2023-04-10T03:36:39.346Z,90.66
2023-04-10T03:41:40.053Z,91.32
2023-04-10T03:46:40.841Z,91.63
2023-04-10T03:51:41.496Z,91.94
2023-04-10T03:56:42.162Z,91.84
2023-04-10T04:01:42.914Z,91.94
2023-04-10T04:06:43.601Z,92.30
2023-04-10T04:11:51.274Z,92.19
2023-04-10T04:16:44.920Z,92.40
2023-04-10T04:21:45.569Z,92.91
2023-04-10T04:26:46.219Z,93.02
2023-04-10T04:31:46.986Z,92.71
2023-04-10T04:36:47.646Z,92.50
2023-04-10T04:41:48.286Z,92.61
2023-04-10T04:46:48.987Z,92.09
2023-04-10T04:51:49.622Z,91.63
2023-04-10T04:56:50.275Z,91.74
2023-04-10T05:01:51.057Z,92.15
2023-04-10T05:06:51.830Z,92.00
2023-04-10T05:11:52.460Z,90.83
2023-04-10T05:16:53.125Z,89.44
2023-04-10T05:21:53.781Z,89.40
2023-04-10T05:26:54.468Z,89.05
2023-04-10T05:31:55.104Z,88.49
2023-04-10T05:36:58.821Z,88.08
2023-04-10T05:41:56.717Z,87.52
2023-04-10T05:46:57.340Z,87.52
2023-04-10T05:51:58.047Z,87.27
2023-04-10T05:56:58.654Z,86.31
2023-04-10T06:01:59.403Z,85.96
2023-04-10T06:07:00.023Z,84.27
2023-04-10T06:12:00.680Z,84.23
2023-04-10T06:17:01.413Z,83.89
2023-04-10T06:22:02.003Z,82.96
2023-04-10T06:27:02.686Z,83.23
2023-04-10T06:32:03.328Z,83.19
2023-04-10T06:37:04.014Z,82.68
2023-04-10T06:42:04.672Z,82.75
2023-04-10T06:47:05.374Z,82.33
2023-04-10T06:52:06.012Z,82.43
2023-04-10T06:57:06.653Z,81.99
2023-04-10T07:02:07.350Z,81.43
2023-04-10T07:07:08.058Z,81.34
2023-04-10T07:12:08.732Z,80.88
2023-04-10T07:17:09.365Z,79.72
2023-04-10T07:22:10.015Z,80.54
2023-04-10T07:27:10.836Z,80.51
2023-04-10T07:32:11.682Z,80.30
2023-04-10T07:37:12.349Z,79.96
2023-04-10T07:42:13.018Z,78.79
2023-04-10T07:47:13.675Z,77.53
2023-04-10T07:52:14.313Z,77.32
2023-04-10T07:57:14.958Z,77.08
2023-04-10T08:02:15.742Z,75.71
2023-04-10T08:07:16.383Z,75.37
2023-04-10T08:12:17.024Z,73.71
2023-04-10T08:17:17.727Z,73.16
2023-04-10T08:22:18.362Z,73.06
2023-04-10T08:27:19.050Z,72.52
2023-04-10T08:32:19.694Z,71.36
2023-04-10T08:37:20.374Z,69.83
2023-04-10T08:42:21.009Z,69.49
2023-04-10T08:47:21.744Z,69.87
2023-04-10T08:52:22.395Z,68.44
2023-04-10T08:57:23.057Z,67.93
2023-04-10T09:02:23.922Z,68.21
2023-04-10T09:07:24.392Z,66.35
2023-04-10T09:12:25.063Z,65.83
2023-04-10T09:17:25.728Z,64.41
2023-04-10T09:22:26.351Z,65.39
2023-04-10T09:27:27.007Z,63.54
2023-04-10T09:32:27.704Z,63.43
2023-04-10T09:37:28.371Z,62.70
2023-04-10T09:42:29.132Z,61.98
2023-04-10T09:47:29.920Z,61.75
2023-04-10T09:52:30.574Z,61.32
2023-04-10T09:57:31.270Z,61.21
2023-04-10T10:02:32.310Z,62.23
2023-04-10T10:07:32.515Z,61.18
2023-04-10T10:12:40.182Z,60.14
2023-04-10T10:17:33.906Z,60.27
2023-04-10T10:22:34.530Z,60.58
2023-04-10T10:27:35.168Z,60.52
2023-04-10T10:32:35.901Z,60.31
2023-04-10T10:37:36.530Z,59.70
2023-04-10T10:42:37.219Z,59.45
2023-04-10T10:47:37.876Z,58.56
2023-04-10T10:52:38.501Z,57.93
2023-04-10T10:57:39.156Z,58.11
2023-04-10T11:02:40.008Z,56.69
2023-04-10T11:07:40.694Z,56.82
2023-04-10T11:12:41.343Z,56.79
2023-04-10T11:17:42.068Z,56.01
2023-04-10T11:22:42.738Z,55.90
2023-04-10T11:27:43.374Z,54.86
2023-04-10T11:32:44.021Z,55.98
2023-04-10T11:37:44.659Z,55.42
2023-04-10T11:42:45.353Z,54.82
2023-04-10T11:47:45.965Z,54.51
2023-04-10T11:52:46.597Z,54.21
2023-04-10T11:57:47.252Z,53.80
2023-04-10T12:02:48.142Z,53.17
2023-04-10T12:07:48.799Z,51.88
2023-04-10T12:12:49.448Z,52.06
2023-04-10T12:17:50.274Z,51.73
2023-04-10T12:22:50.888Z,51.40
2023-04-10T12:27:51.565Z,50.42
2023-04-10T12:32:52.284Z,51.76
2023-04-10T12:37:52.954Z,51.55
2023-04-10T12:42:53.582Z,51.43
2023-04-10T12:47:54.272Z,50.32
2023-04-10T12:52:54.961Z,50.32
2023-04-10T12:57:55.594Z,49.81
2023-04-10T13:02:56.473Z,48.68
2023-04-10T13:07:56.722Z,49.61
2023-04-10T13:12:57.343Z,49.91
2023-04-10T13:17:58.040Z,48.98
2023-04-10T13:22:58.663Z,47.97
2023-04-10T13:27:59.337Z,48.88
2023-04-10T13:33:00.070Z,49.10
2023-04-10T13:38:00.809Z,50.34
2023-04-10T13:43:01.438Z,51.25
2023-04-10T13:48:02.130Z,52.48
2023-04-10T13:53:02.749Z,51.35
2023-04-10T13:58:03.386Z,51.45
2023-04-10T14:03:04.215Z,51.68
2023-04-10T14:08:04.953Z,52.67
2023-04-10T14:13:05.611Z,50.57
2023-04-10T14:18:06.306Z,50.54
2023-04-10T14:23:06.975Z,51.57
2023-04-10T14:28:07.610Z,51.05
2023-04-10T14:33:08.276Z,50.82
2023-04-10T14:38:08.923Z,49.71
2023-04-10T14:43:09.604Z,50.29
2023-04-10T14:48:10.276Z,51.20
2023-04-10T14:53:10.976Z,51.23
2023-04-10T14:58:11.619Z,52.36
2023-04-10T15:03:12.343Z,52.26
2023-04-10T15:08:12.987Z,50.72
2023-04-10T15:13:13.630Z,48.98
2023-04-10T15:18:14.273Z,49.99
2023-04-10T15:23:14.973Z,49.48
2023-04-10T15:28:15.600Z,49.73
2023-04-10T15:33:16.263Z,50.74
2023-04-10T15:38:16.896Z,49.73
2023-04-10T15:43:17.596Z,49.43
2023-04-10T15:48:18.201Z,49.10
2023-04-10T15:53:18.860Z,49.02
2023-04-10T15:58:19.526Z,48.32
2023-04-10T16:03:20.308Z,48.34
2023-04-10T16:08:20.981Z,48.06
2023-04-10T16:13:28.632Z,48.57
2023-04-10T16:18:22.265Z,48.87
2023-04-10T16:23:22.935Z,48.69
2023-04-10T16:28:23.566Z,48.08
2023-04-10T16:33:24.227Z,48.90
2023-04-10T16:38:24.877Z,48.18
2023-04-10T16:43:25.555Z,48.99
2023-04-10T16:48:26.203Z,48.59
2023-04-10T16:53:26.840Z,49.02
2023-04-10T16:58:27.492Z,49.02
2023-04-10T17:03:28.232Z,49.44
2023-04-10T17:08:28.858Z,50.05
2023-04-10T17:13:29.508Z,50.05
2023-04-10T17:18:30.182Z,50.08
2023-04-10T17:23:30.820Z,50.48
2023-04-10T17:28:31.460Z,50.48
2023-04-10T17:33:32.127Z,51.01
2023-04-10T17:38:32.771Z,51.21
2023-04-10T17:43:33.422Z,51.04
2023-04-10T17:48:34.126Z,51.24
2023-04-10T17:53:34.788Z,51.24
2023-04-10T17:58:35.464Z,51.26
2023-04-10T18:03:36.197Z,51.37
2023-04-10T18:08:36.839Z,51.16
2023-04-10T18:13:37.498Z,51.77
2023-04-10T18:18:38.174Z,51.37
2023-04-10T18:23:38.810Z,51.90
2023-04-10T18:28:39.454Z,51.90
2023-04-10T18:33:40.205Z,52.30
2023-04-10T18:38:40.959Z,52.84
2023-04-10T18:43:42.387Z,52.84
2023-04-10T18:48:42.103Z,53.24
2023-04-10T18:53:42.824Z,52.94
2023-04-10T18:58:43.506Z,53.17
2023-04-10T19:03:44.375Z,52.86
2023-04-10T19:08:44.788Z,52.96
2023-04-10T19:13:45.556Z,52.45
2023-04-10T19:18:46.221Z,52.86
2023-04-10T19:23:46.922Z,51.95
2023-04-10T19:28:47.651Z,51.75
2023-04-10T19:33:48.334Z,52.08
2023-04-10T19:38:49.030Z,51.56
2023-04-10T19:43:49.763Z,51.56
2023-04-10T19:48:50.458Z,51.06
2023-04-10T19:53:51.147Z,51.26
2023-04-10T19:58:51.858Z,51.26
2023-04-10T20:03:52.641Z,51.39
2023-04-10T20:08:53.961Z,51.18
2023-04-10T20:13:54.372Z,50.57
2023-04-10T20:18:55.370Z,51.08
2023-04-10T20:23:55.755Z,50.67
2023-04-10T20:28:56.555Z,50.57
2023-04-10T20:33:57.269Z,50.57
2023-04-10T20:38:58.003Z,50.16
2023-04-10T20:43:58.692Z,49.98
2023-04-10T20:48:59.410Z,50.19
2023-04-10T20:54:00.141Z,49.68
2023-04-10T20:59:00.850Z,49.68
2023-04-10T21:04:01.625Z,49.07
2023-04-10T21:09:02.411Z,49.88
2023-04-10T21:14:03.120Z,49.98
2023-04-10T21:19:03.916Z,50.09
2023-04-10T21:24:04.591Z,50.11
2023-04-10T21:29:05.296Z,50.21
2023-04-10T21:34:06.029Z,50.42
2023-04-10T21:39:06.710Z,50.42
2023-04-10T21:44:07.421Z,51.13
2023-04-10T21:49:08.139Z,51.03
2023-04-10T21:54:08.817Z,51.13
2023-04-10T21:59:09.517Z,51.66
2023-04-10T22:04:10.375Z,52.58
2023-04-10T22:09:10.707Z,52.07
2023-04-10T22:14:20.770Z,52.29
2023-04-10T22:19:12.071Z,52.50
2023-04-10T22:24:12.796Z,52.70
2023-04-10T22:29:13.478Z,52.60
2023-04-10T22:34:14.206Z,53.11
2023-04-10T22:39:14.888Z,53.22
2023-04-10T22:44:15.607Z,53.44
2023-04-10T22:49:16.289Z,53.96
2023-04-10T22:54:16.993Z,53.96
2023-04-10T22:59:17.727Z,53.55
2023-04-10T23:04:18.529Z,53.75
2023-04-10T23:09:19.214Z,53.96
2023-04-10T23:14:19.926Z,53.96
2023-04-10T23:19:20.644Z,54.87
2023-04-10T23:24:21.327Z,54.57
2023-04-10T23:29:22.035Z,55.00
2023-04-10T23:34:22.760Z,55.20
2023-04-10T23:39:23.431Z,55.10
2023-04-10T23:44:24.135Z,55.41
2023-04-10T23:49:24.867Z,55.30
2023-04-10T23:54:25.542Z,55.51
2023-04-10T23:59:26.244Z,55.74
